sensor_id;sensor_type;location;lat;lon;timestamp;temperature;humidity
2565;DHT22;1292;48.020;7.822;2022-09-01T05:45:44;16.30;99.90
2565;DHT22;1292;48.020;7.822;2022-09-01T05:48:12;16.40;99.90
2565;DHT22;1292;48.020;7.822;2022-09-01T05:50:40;16.50;99.90
2565;DHT22;1292;48.020;7.822;2022-09-01T05:53:08;16.50;99.90
2565;DHT22;1292;48.020;7.822;2022-09-01T05:55:41;16.60;99.90
2565;DHT22;1292;48.020;7.822;2022-09-01T05:58:09;16.60;99.90
2565;DHT22;1292;48.020;7.822;2022-09-01T06:00:38;16.60;99.90
2565;DHT22;1292;48.020;7.822;2022-09-01T06:03:07;16.60;99.90
2565;DHT22;1292;48.020;7.822;2022-09-01T06:05:35;16.70;99.90
2565;DHT22;1292;48.020;7.822;2022-09-01T06:08:03;16.60;99.90
2565;DHT22;1292;48.020;7.822;2022-09-01T06:10:33;16.60;99.90
2565;DHT22;1292;48.020;7.822;2022-09-01T06:13:04;16.60;99.90
2565;DHT22;1292;48.020;7.822;2022-09-01T06:15:31;16.60;99.90
2565;DHT22;1292;48.020;7.822;2022-09-01T06:17:58;16.70;99.90
2565;DHT22;1292;48.020;7.822;2022-09-01T06:20:27;16.70;99.90
2565;DHT22;1292;48.020;7.822;2022-09-01T06:22:54;16.70;99.90
2565;DHT22;1292;48.020;7.822;2022-09-01T06:25:21;16.70;99.90
2565;DHT22;1292;48.020;7.822;2022-09-01T06:27:48;16.70;99.90
2565;DHT22;1292;48.020;7.822;2022-09-01T06:30:17;16.60;99.90
2565;DHT22;1292;48.020;7.822;2022-09-01T06:32:45;16.60;99.90
2565;DHT22;1292;48.020;7.822;2022-09-01T06:35:15;16.70;99.90
2565;DHT22;1292;48.020;7.822;2022-09-01T06:37:44;16.70;99.90
2565;DHT22;1292;48.020;7.822;2022-09-01T06:40:15;16.80;99.90
2565;DHT22;1292;48.020;7.822;2022-09-01T06:42:43;16.90;99.90
2565;DHT22;1292;48.020;7.822;2022-09-01T06:45:12;17.00;99.90
2565;DHT22;1292;48.020;7.822;2022-09-01T06:47:40;17.00;99.90
2565;DHT22;1292;48.020;7.822;2022-09-01T06:50:09;17.10;99.90
2565;DHT22;1292;48.020;7.822;2022-09-01T06:52:37;17.10;99.90
2565;DHT22;1292;48.020;7.822;2022-09-01T06:55:06;17.20;99.90
2565;DHT22;1292;48.020;7.822;2022-09-01T06:57:33;17.20;99.90
2565;DHT22;1292;48.020;7.822;2022-09-01T07:00:03;17.20;99.90
2565;DHT22;1292;48.020;7.822;2022-09-01T07:02:40;17.20;99.90
2565;DHT22;1292;48.020;7.822;2022-09-01T07:05:07;17.10;99.90
2565;DHT22;1292;48.020;7.822;2022-09-01T07:07:34;17.20;99.90
2565;DHT22;1292;48.020;7.822;2022-09-01T07:10:02;17.10;99.90
2565;DHT22;1292;48.020;7.822;2022-09-01T07:12:30;17.10;99.90
2565;DHT22;1292;48.020;7.822;2022-09-01T07:14:57;17.20;99.90
2565;DHT22;1292;48.020;7.822;2022-09-01T07:17:24;17.20;99.90
2565;DHT22;1292;48.020;7.822;2022-09-01T07:19:52;17.20;99.90
2565;DHT22;1292;48.020;7.822;2022-09-01T07:22:20;17.30;99.90
2565;DHT22;1292;48.020;7.822;2022-09-01T07:24:47;17.40;99.90
2565;DHT22;1292;48.020;7.822;2022-09-01T07:27:15;17.50;99.90
2565;DHT22;1292;48.020;7.822;2022-09-01T07:29:43;17.50;99.90
2565;DHT22;1292;48.020;7.822;2022-09-01T07:32:11;17.60;99.90
2565;DHT22;1292;48.020;7.822;2022-09-01T07:34:41;17.70;99.90
2565;DHT22;1292;48.020;7.822;2022-09-01T07:37:10;17.80;99.90
2565;DHT22;1292;48.020;7.822;2022-09-01T07:39:38;17.80;99.90
2565;DHT22;1292;48.020;7.822;2022-09-01T07:42:06;17.80;99.90
2565;DHT22;1292;48.020;7.822;2022-09-01T07:44:36;17.90;99.90
2565;DHT22;1292;48.020;7.822;2022-09-01T07:47:05;17.90;99.90
2565;DHT22;1292;48.020;7.822;2022-09-01T07:49:33;18.00;99.90
2565;DHT22;1292;48.020;7.822;2022-09-01T07:52:03;18.10;99.90
2565;DHT22;1292;48.020;7.822;2022-09-01T07:54:30;18.20;99.90
2565;DHT22;1292;48.020;7.822;2022-09-01T07:56:59;18.30;99.90
2565;DHT22;1292;48.020;7.822;2022-09-01T07:59:36;18.40;99.90
2565;DHT22;1292;48.020;7.822;2022-09-01T08:02:03;18.50;99.90
2565;DHT22;1292;48.020;7.822;2022-09-01T08:04:32;18.60;99.90
2565;DHT22;1292;48.020;7.822;2022-09-01T08:06:59;18.60;99.90
2565;DHT22;1292;48.020;7.822;2022-09-01T08:09:27;18.70;99.90
2565;DHT22;1292;48.020;7.822;2022-09-01T08:11:54;18.80;99.90
2565;DHT22;1292;48.020;7.822;2022-09-01T08:14:21;18.90;99.90
2565;DHT22;1292;48.020;7.822;2022-09-01T08:16:48;19.00;99.90
2565;DHT22;1292;48.020;7.822;2022-09-01T08:19:15;19.10;99.90
2565;DHT22;1292;48.020;7.822;2022-09-01T08:21:44;19.10;99.90
2565;DHT22;1292;48.020;7.822;2022-09-01T08:24:11;19.20;99.90
2565;DHT22;1292;48.020;7.822;2022-09-01T08:26:39;19.20;99.90
2565;DHT22;1292;48.020;7.822;2022-09-01T08:29:08;19.30;99.90
2565;DHT22;1292;48.020;7.822;2022-09-01T08:31:46;19.30;99.90
2565;DHT22;1292;48.020;7.822;2022-09-01T08:34:13;19.40;99.90
2565;DHT22;1292;48.020;7.822;2022-09-01T08:36:41;19.60;99.90
2565;DHT22;1292;48.020;7.822;2022-09-01T08:39:09;19.70;99.90
2565;DHT22;1292;48.020;7.822;2022-09-01T08:41:41;19.70;99.90
2565;DHT22;1292;48.020;7.822;2022-09-01T08:44:18;19.60;99.90
2565;DHT22;1292;48.020;7.822;2022-09-01T08:46:47;19.60;99.90
2565;DHT22;1292;48.020;7.822;2022-09-01T08:49:19;19.50;99.90
2565;DHT22;1292;48.020;7.822;2022-09-01T08:51:50;19.60;99.90
2565;DHT22;1292;48.020;7.822;2022-09-01T08:54:24;19.60;99.90
2565;DHT22;1292;48.020;7.822;2022-09-01T08:56:53;19.80;99.90
2565;DHT22;1292;48.020;7.822;2022-09-01T08:59:23;19.70;99.90
2565;DHT22;1292;48.020;7.822;2022-09-01T09:01:59;19.70;99.90
2565;DHT22;1292;48.020;7.822;2022-09-01T09:04:38;19.50;99.90
2565;DHT22;1292;48.020;7.822;2022-09-01T09:07:18;19.40;99.90
2565;DHT22;1292;48.020;7.822;2022-09-01T09:09:55;19.70;99.90
2565;DHT22;1292;48.020;7.822;2022-09-01T09:12:38;20.50;99.90
2565;DHT22;1292;48.020;7.822;2022-09-01T09:15:16;21.50;99.90
2565;DHT22;1292;48.020;7.822;2022-09-01T09:17:48;22.60;99.90
2565;DHT22;1292;48.020;7.822;2022-09-01T09:20:21;22.90;99.90
2565;DHT22;1292;48.020;7.822;2022-09-01T09:22:49;23.00;99.90
2565;DHT22;1292;48.020;7.822;2022-09-01T09:25:18;22.90;99.90
2565;DHT22;1292;48.020;7.822;2022-09-01T09:27:45;23.00;99.90
2565;DHT22;1292;48.020;7.822;2022-09-01T09:30:15;23.00;99.90
2565;DHT22;1292;48.020;7.822;2022-09-01T09:32:48;22.90;99.90
2565;DHT22;1292;48.020;7.822;2022-09-01T09:35:19;23.10;99.90
2565;DHT22;1292;48.020;7.822;2022-09-01T09:37:47;23.00;99.90
2565;DHT22;1292;48.020;7.822;2022-09-01T09:40:18;22.70;99.90
2565;DHT22;1292;48.020;7.822;2022-09-01T09:43:01;22.30;99.90
2565;DHT22;1292;48.020;7.822;2022-09-01T09:45:30;21.90;99.90
2565;DHT22;1292;48.020;7.822;2022-09-01T09:47:58;21.60;99.90
2565;DHT22;1292;48.020;7.822;2022-09-01T09:50:27;21.40;99.90
2565;DHT22;1292;48.020;7.822;2022-09-01T09:53:11;21.50;99.90
2565;DHT22;1292;48.020;7.822;2022-09-01T09:55:51;21.50;99.90
2565;DHT22;1292;48.020;7.822;2022-09-01T09:58:20;21.50;99.90
2565;DHT22;1292;48.020;7.822;2022-09-01T10:01:09;21.50;99.90
2565;DHT22;1292;48.020;7.822;2022-09-01T10:03:42;21.50;99.90
2565;DHT22;1292;48.020;7.822;2022-09-01T10:06:11;21.50;99.90
2565;DHT22;1292;48.020;7.822;2022-09-01T10:08:42;21.60;99.90
2565;DHT22;1292;48.020;7.822;2022-09-01T10:11:24;21.60;99.90
2565;DHT22;1292;48.020;7.822;2022-09-01T10:13:52;21.60;99.90
2565;DHT22;1292;48.020;7.822;2022-09-01T10:16:24;21.50;99.90
2565;DHT22;1292;48.020;7.822;2022-09-01T10:18:52;21.30;99.90
2565;DHT22;1292;48.020;7.822;2022-09-01T10:21:30;21.50;99.90
2565;DHT22;1292;48.020;7.822;2022-09-01T10:23:57;21.70;99.90
2565;DHT22;1292;48.020;7.822;2022-09-01T10:26:31;21.80;99.90
2565;DHT22;1292;48.020;7.822;2022-09-01T10:29:04;21.90;99.90
2565;DHT22;1292;48.020;7.822;2022-09-01T10:31:33;21.90;99.90
2565;DHT22;1292;48.020;7.822;2022-09-01T10:34:02;21.90;99.90
2565;DHT22;1292;48.020;7.822;2022-09-01T10:36:30;22.10;99.90
2565;DHT22;1292;48.020;7.822;2022-09-01T10:38:57;22.20;99.90
2565;DHT22;1292;48.020;7.822;2022-09-01T10:41:49;22.30;99.90
2565;DHT22;1292;48.020;7.822;2022-09-01T10:44:22;22.50;99.90
2565;DHT22;1292;48.020;7.822;2022-09-01T10:46:51;22.50;99.90
2565;DHT22;1292;48.020;7.822;2022-09-01T10:55:16;22.70;99.90
2565;DHT22;1292;48.020;7.822;2022-09-01T10:57:52;22.70;99.90
2565;DHT22;1292;48.020;7.822;2022-09-01T11:00:48;22.70;99.90
2565;DHT22;1292;48.020;7.822;2022-09-01T11:06:54;23.00;99.90
2565;DHT22;1292;48.020;7.822;2022-09-01T11:09:25;23.00;99.90
2565;DHT22;1292;48.020;7.822;2022-09-01T11:12:07;23.10;99.90
2565;DHT22;1292;48.020;7.822;2022-09-01T11:14:48;23.20;99.90
2565;DHT22;1292;48.020;7.822;2022-09-01T11:17:22;23.20;99.90
2565;DHT22;1292;48.020;7.822;2022-09-01T11:20:07;23.40;99.90
2565;DHT22;1292;48.020;7.822;2022-09-01T11:22:37;23.50;99.90
2565;DHT22;1292;48.020;7.822;2022-09-01T11:28:05;23.70;99.90
2565;DHT22;1292;48.020;7.822;2022-09-01T11:30:42;23.70;99.90
2565;DHT22;1292;48.020;7.822;2022-09-01T11:36:14;24.00;99.90
2565;DHT22;1292;48.020;7.822;2022-09-01T11:38:47;24.10;99.90
2565;DHT22;1292;48.020;7.822;2022-09-01T11:41:22;24.20;99.90
2565;DHT22;1292;48.020;7.822;2022-09-01T11:43:51;24.30;99.90
2565;DHT22;1292;48.020;7.822;2022-09-01T11:46:24;24.20;99.90
2565;DHT22;1292;48.020;7.822;2022-09-01T11:48:53;24.40;99.90
2565;DHT22;1292;48.020;7.822;2022-09-01T11:51:21;24.40;99.90
2565;DHT22;1292;48.020;7.822;2022-09-01T11:53:49;24.50;99.90
2565;DHT22;1292;48.020;7.822;2022-09-01T11:56:19;24.60;99.90
2565;DHT22;1292;48.020;7.822;2022-09-01T11:58:50;24.80;99.90
2565;DHT22;1292;48.020;7.822;2022-09-01T12:01:18;24.80;99.90
2565;DHT22;1292;48.020;7.822;2022-09-01T12:03:49;24.80;99.90
2565;DHT22;1292;48.020;7.822;2022-09-01T12:06:21;24.80;99.90
2565;DHT22;1292;48.020;7.822;2022-09-01T12:08:55;24.90;99.90
2565;DHT22;1292;48.020;7.822;2022-09-01T12:11:24;24.70;99.90
2565;DHT22;1292;48.020;7.822;2022-09-01T12:13:57;24.70;99.90
2565;DHT22;1292;48.020;7.822;2022-09-01T12:16:24;24.80;99.90
2565;DHT22;1292;48.020;7.822;2022-09-01T12:18:54;24.60;99.90
2565;DHT22;1292;48.020;7.822;2022-09-01T12:21:25;24.80;99.90
2565;DHT22;1292;48.020;7.822;2022-09-01T12:23:52;24.80;99.90
2565;DHT22;1292;48.020;7.822;2022-09-01T12:26:23;25.00;99.90
2565;DHT22;1292;48.020;7.822;2022-09-01T12:28:51;25.00;99.90
2565;DHT22;1292;48.020;7.822;2022-09-01T12:31:21;25.00;99.90
2565;DHT22;1292;48.020;7.822;2022-09-01T12:33:49;24.90;99.90
2565;DHT22;1292;48.020;7.822;2022-09-01T12:36:23;24.90;99.90
2565;DHT22;1292;48.020;7.822;2022-09-01T12:38:50;25.00;99.90
2565;DHT22;1292;48.020;7.822;2022-09-01T12:41:26;25.20;99.90
2565;DHT22;1292;48.020;7.822;2022-09-01T12:43:57;25.20;99.90
2565;DHT22;1292;48.020;7.822;2022-09-01T12:46:44;25.30;99.90
2565;DHT22;1292;48.020;7.822;2022-09-01T12:49:18;25.30;99.90
2565;DHT22;1292;48.020;7.822;2022-09-01T12:51:46;25.20;99.90
2565;DHT22;1292;48.020;7.822;2022-09-01T12:54:14;25.40;99.90
2565;DHT22;1292;48.020;7.822;2022-09-01T12:56:47;25.40;99.90
2565;DHT22;1292;48.020;7.822;2022-09-01T12:59:22;25.40;99.90
2565;DHT22;1292;48.020;7.822;2022-09-01T13:01:49;25.30;99.90
2565;DHT22;1292;48.020;7.822;2022-09-01T13:04:28;25.40;99.90
2565;DHT22;1292;48.020;7.822;2022-09-01T13:07:01;25.50;99.90
2565;DHT22;1292;48.020;7.822;2022-09-01T13:09:28;25.50;99.90
2565;DHT22;1292;48.020;7.822;2022-09-01T13:12:09;25.50;99.90
2565;DHT22;1292;48.020;7.822;2022-09-01T13:14:36;25.40;99.90
2565;DHT22;1292;48.020;7.822;2022-09-01T13:17:03;25.20;99.90
2565;DHT22;1292;48.020;7.822;2022-09-01T13:19:30;25.20;99.90
2565;DHT22;1292;48.020;7.822;2022-09-01T13:21:58;25.30;99.90
2565;DHT22;1292;48.020;7.822;2022-09-01T13:24:25;25.40;99.90
2565;DHT22;1292;48.020;7.822;2022-09-01T13:26:52;25.40;99.90
2565;DHT22;1292;48.020;7.822;2022-09-01T13:29:22;25.30;99.90
2565;DHT22;1292;48.020;7.822;2022-09-01T13:31:49;25.40;99.90
2565;DHT22;1292;48.020;7.822;2022-09-01T13:34:16;25.30;99.90
2565;DHT22;1292;48.020;7.822;2022-09-01T13:36:43;25.20;99.90
2565;DHT22;1292;48.020;7.822;2022-09-01T13:39:11;25.30;99.90
2565;DHT22;1292;48.020;7.822;2022-09-01T13:41:38;25.30;99.90
2565;DHT22;1292;48.020;7.822;2022-09-01T13:44:05;25.20;99.90
2565;DHT22;1292;48.020;7.822;2022-09-01T13:46:34;25.10;99.90
2565;DHT22;1292;48.020;7.822;2022-09-01T13:49:01;25.20;99.90
2565;DHT22;1292;48.020;7.822;2022-09-01T13:51:28;25.20;99.90
2565;DHT22;1292;48.020;7.822;2022-09-01T13:53:55;25.20;99.90
2565;DHT22;1292;48.020;7.822;2022-09-01T13:56:23;25.20;99.90
2565;DHT22;1292;48.020;7.822;2022-09-01T13:58:50;25.40;99.90
2565;DHT22;1292;48.020;7.822;2022-09-01T14:01:17;25.50;99.90
2565;DHT22;1292;48.020;7.822;2022-09-01T14:03:44;25.60;99.90
2565;DHT22;1292;48.020;7.822;2022-09-01T14:06:10;25.50;99.90
2565;DHT22;1292;48.020;7.822;2022-09-01T14:08:37;25.60;99.90
2565;DHT22;1292;48.020;7.822;2022-09-01T14:11:04;25.70;99.90
2565;DHT22;1292;48.020;7.822;2022-09-01T14:13:33;25.70;99.90
2565;DHT22;1292;48.020;7.822;2022-09-01T14:16:00;25.80;99.90
2565;DHT22;1292;48.020;7.822;2022-09-01T14:18:27;26.00;99.90
2565;DHT22;1292;48.020;7.822;2022-09-01T14:20:57;26.20;99.90
2565;DHT22;1292;48.020;7.822;2022-09-01T14:23:25;26.30;99.90
2565;DHT22;1292;48.020;7.822;2022-09-01T14:25:52;26.40;99.90
2565;DHT22;1292;48.020;7.822;2022-09-01T14:28:21;26.50;99.90
2565;DHT22;1292;48.020;7.822;2022-09-01T14:30:50;26.60;99.90
2565;DHT22;1292;48.020;7.822;2022-09-01T14:33:17;26.60;99.90
2565;DHT22;1292;48.020;7.822;2022-09-01T14:35:46;26.60;99.90
2565;DHT22;1292;48.020;7.822;2022-09-01T14:38:13;26.50;99.90
2565;DHT22;1292;48.020;7.822;2022-09-01T14:40:41;26.30;99.90
2565;DHT22;1292;48.020;7.822;2022-09-01T14:43:10;26.10;99.90
2565;DHT22;1292;48.020;7.822;2022-09-01T14:45:37;25.90;99.90
2565;DHT22;1292;48.020;7.822;2022-09-01T14:48:05;25.80;99.90
2565;DHT22;1292;48.020;7.822;2022-09-01T14:50:33;25.80;99.90
2565;DHT22;1292;48.020;7.822;2022-09-01T14:53:04;25.70;99.90
2565;DHT22;1292;48.020;7.822;2022-09-01T14:55:31;25.60;99.90
2565;DHT22;1292;48.020;7.822;2022-09-01T14:57:58;25.60;99.90
2565;DHT22;1292;48.020;7.822;2022-09-01T15:00:26;25.50;99.90
2565;DHT22;1292;48.020;7.822;2022-09-01T15:02:54;25.50;99.90
2565;DHT22;1292;48.020;7.822;2022-09-01T15:05:23;25.40;99.90
2565;DHT22;1292;48.020;7.822;2022-09-01T15:07:51;25.40;99.90
2565;DHT22;1292;48.020;7.822;2022-09-01T15:10:23;25.40;99.90
2565;DHT22;1292;48.020;7.822;2022-09-01T15:12:50;25.30;99.90
2565;DHT22;1292;48.020;7.822;2022-09-01T15:15:17;25.30;99.90
2565;DHT22;1292;48.020;7.822;2022-09-01T15:17:44;25.30;99.90
2565;DHT22;1292;48.020;7.822;2022-09-01T15:20:10;25.40;99.90
2565;DHT22;1292;48.020;7.822;2022-09-01T15:22:56;25.40;99.90
2565;DHT22;1292;48.020;7.822;2022-09-01T15:25:23;25.50;99.90
2565;DHT22;1292;48.020;7.822;2022-09-01T15:27:50;25.60;99.90
2565;DHT22;1292;48.020;7.822;2022-09-01T15:30:18;25.70;99.90
2565;DHT22;1292;48.020;7.822;2022-09-01T15:32:47;25.90;99.90
2565;DHT22;1292;48.020;7.822;2022-09-01T15:35:16;25.90;99.90
2565;DHT22;1292;48.020;7.822;2022-09-01T15:37:44;25.90;99.90
2565;DHT22;1292;48.020;7.822;2022-09-01T15:40:13;25.90;99.90
2565;DHT22;1292;48.020;7.822;2022-09-01T15:42:40;25.90;99.90
2565;DHT22;1292;48.020;7.822;2022-09-01T15:45:09;25.80;99.90
2565;DHT22;1292;48.020;7.822;2022-09-01T15:47:37;25.70;99.90
2565;DHT22;1292;48.020;7.822;2022-09-01T15:50:07;25.50;99.90
2565;DHT22;1292;48.020;7.822;2022-09-01T15:52:34;25.40;99.90
2565;DHT22;1292;48.020;7.822;2022-09-01T15:55:13;25.40;99.90
2565;DHT22;1292;48.020;7.822;2022-09-01T15:57:40;25.30;99.90
2565;DHT22;1292;48.020;7.822;2022-09-01T16:00:08;25.30;99.90
2565;DHT22;1292;48.020;7.822;2022-09-01T16:02:35;25.20;99.90
2565;DHT22;1292;48.020;7.822;2022-09-01T16:05:03;25.20;99.90
2565;DHT22;1292;48.020;7.822;2022-09-01T16:07:31;25.10;99.90
2565;DHT22;1292;48.020;7.822;2022-09-01T16:09:57;25.20;99.90
2565;DHT22;1292;48.020;7.822;2022-09-01T16:12:27;25.10;99.90
2565;DHT22;1292;48.020;7.822;2022-09-01T16:14:54;25.10;99.90
2565;DHT22;1292;48.020;7.822;2022-09-01T16:17:25;25.10;99.90
2565;DHT22;1292;48.020;7.822;2022-09-01T16:20:01;25.10;99.90
2565;DHT22;1292;48.020;7.822;2022-09-01T16:22:33;25.10;99.90
2565;DHT22;1292;48.020;7.822;2022-09-01T16:25:07;25.10;99.90
2565;DHT22;1292;48.020;7.822;2022-09-01T16:27:42;25.20;99.90
2565;DHT22;1292;48.020;7.822;2022-09-01T16:30:12;25.20;99.90
2565;DHT22;1292;48.020;7.822;2022-09-01T16:32:43;25.20;99.90
2565;DHT22;1292;48.020;7.822;2022-09-01T16:35:10;25.20;99.90
2565;DHT22;1292;48.020;7.822;2022-09-01T16:37:43;25.10;99.90
2565;DHT22;1292;48.020;7.822;2022-09-01T16:40:20;25.10;99.90
2565;DHT22;1292;48.020;7.822;2022-09-01T16:42:57;25.10;99.90
2565;DHT22;1292;48.020;7.822;2022-09-01T16:45:38;25.00;99.90
2565;DHT22;1292;48.020;7.822;2022-09-01T16:48:16;25.00;99.90
2565;DHT22;1292;48.020;7.822;2022-09-01T16:50:47;24.90;99.90
2565;DHT22;1292;48.020;7.822;2022-09-01T16:53:23;24.80;99.90
2565;DHT22;1292;48.020;7.822;2022-09-01T16:55:58;24.70;99.90
2565;DHT22;1292;48.020;7.822;2022-09-01T16:58:36;24.60;99.90
2565;DHT22;1292;48.020;7.822;2022-09-01T17:04:18;24.40;99.90
2565;DHT22;1292;48.020;7.822;2022-09-01T17:06:55;24.40;99.90
2565;DHT22;1292;48.020;7.822;2022-09-01T17:09:29;24.30;99.90
2565;DHT22;1292;48.020;7.822;2022-09-01T17:14:55;24.20;99.90
2565;DHT22;1292;48.020;7.822;2022-09-01T17:17:33;24.20;99.90
2565;DHT22;1292;48.020;7.822;2022-09-01T17:20:04;24.10;99.90
2565;DHT22;1292;48.020;7.822;2022-09-01T17:22:33;24.10;99.90
2565;DHT22;1292;48.020;7.822;2022-09-01T17:25:04;24.00;99.90
2565;DHT22;1292;48.020;7.822;2022-09-01T17:27:38;23.90;99.90
2565;DHT22;1292;48.020;7.822;2022-09-01T17:30:14;24.00;99.90
2565;DHT22;1292;48.020;7.822;2022-09-01T17:32:58;23.90;99.90
2565;DHT22;1292;48.020;7.822;2022-09-01T17:35:37;23.80;99.90
2565;DHT22;1292;48.020;7.822;2022-09-01T17:38:12;23.80;99.90
2565;DHT22;1292;48.020;7.822;2022-09-01T17:40:52;23.70;99.90
2565;DHT22;1292;48.020;7.822;2022-09-01T17:43:26;23.60;99.90
2565;DHT22;1292;48.020;7.822;2022-09-01T17:46:04;23.60;99.90
2565;DHT22;1292;48.020;7.822;2022-09-01T17:48:48;23.50;99.90
2565;DHT22;1292;48.020;7.822;2022-09-01T17:51:24;23.50;99.90
2565;DHT22;1292;48.020;7.822;2022-09-01T17:54:00;23.40;99.90
2565;DHT22;1292;48.020;7.822;2022-09-01T17:56:36;23.40;99.90
2565;DHT22;1292;48.020;7.822;2022-09-01T17:59:12;23.40;99.90
2565;DHT22;1292;48.020;7.822;2022-09-01T18:01:51;23.20;99.90
2565;DHT22;1292;48.020;7.822;2022-09-01T18:04:38;23.20;99.90
2565;DHT22;1292;48.020;7.822;2022-09-01T18:07:17;23.10;99.90
2565;DHT22;1292;48.020;7.822;2022-09-01T18:09:49;23.10;99.90
2565;DHT22;1292;48.020;7.822;2022-09-01T18:12:20;23.00;99.90
2565;DHT22;1292;48.020;7.822;2022-09-01T18:14:55;22.90;99.90
2565;DHT22;1292;48.020;7.822;2022-09-01T18:17:29;22.90;99.90
2565;DHT22;1292;48.020;7.822;2022-09-01T18:20:04;22.90;99.90
2565;DHT22;1292;48.020;7.822;2022-09-01T18:22:39;22.80;99.90
2565;DHT22;1292;48.020;7.822;2022-09-01T18:25:14;22.80;99.90
2565;DHT22;1292;48.020;7.822;2022-09-01T18:27:42;22.80;99.90
2565;DHT22;1292;48.020;7.822;2022-09-01T18:30:16;22.70;99.90
2565;DHT22;1292;48.020;7.822;2022-09-01T18:32:50;22.60;99.90
2565;DHT22;1292;48.020;7.822;2022-09-01T18:35:38;22.50;99.90
2565;DHT22;1292;48.020;7.822;2022-09-01T18:38:24;22.40;99.90
2565;DHT22;1292;48.020;7.822;2022-09-01T18:41:11;22.30;99.90
2565;DHT22;1292;48.020;7.822;2022-09-01T18:43:43;22.20;99.90
2565;DHT22;1292;48.020;7.822;2022-09-01T18:46:16;22.20;99.90
2565;DHT22;1292;48.020;7.822;2022-09-01T18:48:54;22.00;99.90
2565;DHT22;1292;48.020;7.822;2022-09-01T18:51:38;22.00;99.90
2565;DHT22;1292;48.020;7.822;2022-09-01T18:54:11;22.00;99.90
2565;DHT22;1292;48.020;7.822;2022-09-01T18:56:43;22.00;99.90
2565;DHT22;1292;48.020;7.822;2022-09-01T18:59:31;21.90;99.90
2565;DHT22;1292;48.020;7.822;2022-09-01T19:02:07;21.80;99.90
2565;DHT22;1292;48.020;7.822;2022-09-01T19:04:39;21.80;99.90
2565;DHT22;1292;48.020;7.822;2022-09-01T19:07:10;21.70;99.90
2565;DHT22;1292;48.020;7.822;2022-09-01T19:09:46;21.60;99.90
2565;DHT22;1292;48.020;7.822;2022-09-01T19:12:23;21.60;99.90
2565;DHT22;1292;48.020;7.822;2022-09-01T19:14:59;21.50;99.90
2565;DHT22;1292;48.020;7.822;2022-09-01T19:17:49;21.40;99.90
2565;DHT22;1292;48.020;7.822;2022-09-01T19:20:21;21.20;99.90
2565;DHT22;1292;48.020;7.822;2022-09-01T19:22:55;21.20;99.90
2565;DHT22;1292;48.020;7.822;2022-09-01T19:25:24;21.20;99.90
2565;DHT22;1292;48.020;7.822;2022-09-01T19:28:10;21.20;99.90
2565;DHT22;1292;48.020;7.822;2022-09-01T19:30:44;21.10;99.90
2565;DHT22;1292;48.020;7.822;2022-09-01T19:33:16;21.10;99.90
2565;DHT22;1292;48.020;7.822;2022-09-01T19:35:47;21.00;99.90
2565;DHT22;1292;48.020;7.822;2022-09-01T19:38:20;21.00;99.90
2565;DHT22;1292;48.020;7.822;2022-09-01T19:40:53;21.00;99.90
2565;DHT22;1292;48.020;7.822;2022-09-01T19:43:26;20.90;99.90
2565;DHT22;1292;48.020;7.822;2022-09-01T19:46:14;20.90;99.90
2565;DHT22;1292;48.020;7.822;2022-09-01T19:48:47;20.80;99.90
2565;DHT22;1292;48.020;7.822;2022-09-01T19:51:19;20.90;99.90
2565;DHT22;1292;48.020;7.822;2022-09-01T19:53:50;20.90;99.90
2565;DHT22;1292;48.020;7.822;2022-09-01T19:56:24;20.90;99.90
2565;DHT22;1292;48.020;7.822;2022-09-01T19:58:59;20.80;99.90
2565;DHT22;1292;48.020;7.822;2022-09-01T20:01:37;20.70;99.90
2565;DHT22;1292;48.020;7.822;2022-09-01T20:04:12;20.70;99.90
2565;DHT22;1292;48.020;7.822;2022-09-01T20:06:45;20.80;99.90
2565;DHT22;1292;48.020;7.822;2022-09-01T20:09:16;20.80;99.90
2565;DHT22;1292;48.020;7.822;2022-09-01T20:11:50;20.70;99.90
2565;DHT22;1292;48.020;7.822;2022-09-01T20:14:36;20.70;99.90
2565;DHT22;1292;48.020;7.822;2022-09-01T20:17:19;20.70;99.90
2565;DHT22;1292;48.020;7.822;2022-09-01T20:19:51;20.70;99.90
2565;DHT22;1292;48.020;7.822;2022-09-01T20:22:26;20.70;99.90
2565;DHT22;1292;48.020;7.822;2022-09-01T20:25:00;20.70;99.90
2565;DHT22;1292;48.020;7.822;2022-09-01T20:27:45;20.70;99.90
2565;DHT22;1292;48.020;7.822;2022-09-01T20:30:14;20.70;99.90
2565;DHT22;1292;48.020;7.822;2022-09-01T20:32:46;20.60;99.90
2565;DHT22;1292;48.020;7.822;2022-09-01T20:35:19;20.60;99.90
2565;DHT22;1292;48.020;7.822;2022-09-01T20:37:51;20.60;99.90
2565;DHT22;1292;48.020;7.822;2022-09-01T20:40:24;20.50;99.90
2565;DHT22;1292;48.020;7.822;2022-09-01T20:43:06;20.40;99.90
2565;DHT22;1292;48.020;7.822;2022-09-01T20:45:35;20.50;99.90
2565;DHT22;1292;48.020;7.822;2022-09-01T20:48:04;20.40;99.90
2565;DHT22;1292;48.020;7.822;2022-09-01T20:50:35;20.40;99.90
2565;DHT22;1292;48.020;7.822;2022-09-01T20:53:23;20.40;99.90
2565;DHT22;1292;48.020;7.822;2022-09-01T20:55:56;20.10;99.90
2565;DHT22;1292;48.020;7.822;2022-09-01T20:58:31;20.10;99.90
